Time;durP1;ratioP1;P1;durP2;ratioP2;P2;SDS_P1;SDS_P2;PMS_P1;PMS_P2;Temp;Humidity;BMP_temperature;BMP_pressure;BME280_temperature;BME280_humidity;BME280_pressure;Samples;Min_cycle;Max_cycle;Signal;HPM_P1;HPM_P2
2021/05/19 00:02:50;;;;;;;4.13;1.47;;;;;;;;;;10529202;28;20235;-70
2021/05/19 00:07:52;;;;;;;2.03;1.20;;;;;;;;;;10546617;27;20192;-70
2021/05/19 00:12:55;;;;;;;3.20;1.23;;;;;;;;;;10523049;28;20230;-70
2021/05/19 00:18:02;;;;;;;2.60;1.57;;;;;;;;;;10535357;28;20304;-69
2021/05/19 00:23:04;;;;;;;2.73;1.37;;;;;;;;;;10536327;27;20227;-69
2021/05/19 00:28:07;;;;;;;2.87;1.37;;;;;;;;;;10528494;28;20196;-70
2021/05/19 00:33:10;;;;;;;2.57;1.37;;;;;;;;;;10524348;28;20273;-71
2021/05/19 00:38:12;;;;;;;2.27;1.20;;;;;;;;;;10524073;28;20290;-70
2021/05/19 00:43:15;;;;;;;3.53;1.30;;;;;;;;;;10528460;28;20204;-70
2021/05/19 00:48:18;;;;;;;2.60;1.17;;;;;;;;;;10523582;28;20203;-71
2021/05/19 00:53:21;;;;;;;2.13;1.17;;;;;;;;;;10517813;28;20331;-71
2021/05/19 00:58:23;;;;;;;2.27;1.20;;;;;;;;;;10527388;28;20211;-71
2021/05/19 01:03:27;;;;;;;1.63;1.13;;;;;;;;;;10526947;28;20215;-68
2021/05/19 01:13:50;;;;;;;1.90;1.10;;;;;;;;;;10523441;28;20220;-69
2021/05/19 01:18:54;;;;;;;2.20;1.07;;;;;;;;;;10510663;28;20212;-71
2021/05/19 01:23:58;;;;;;;2.47;1.00;;;;;;;;;;10518755;28;20224;-69
2021/05/19 01:29:01;;;;;;;1.90;0.90;;;;;;;;;;10549296;28;20211;-69
2021/05/19 01:34:04;;;;;;;2.27;1.00;;;;;;;;;;10539719;28;20212;-69
2021/05/19 01:39:08;;;;;;;1.80;0.90;;;;;;;;;;10530380;28;20215;-70
2021/05/19 01:44:12;;;;;;;2.57;1.00;;;;;;;;;;10529710;28;20568;-70
2021/05/19 01:49:16;;;;;;;2.23;0.93;;;;;;;;;;10516295;28;20226;-69
2021/05/19 01:54:21;;;;;;;1.80;0.87;;;;;;;;;;10524000;28;20212;-70
2021/05/19 01:59:23;;;;;;;2.13;0.97;;;;;;;;;;10504853;28;20211;-71
2021/05/19 02:04:26;;;;;;;2.43;1.07;;;;;;;;;;10506559;28;20227;-71
2021/05/19 02:09:30;;;;;;;1.70;0.93;;;;;;;;;;10518581;27;20196;-70
2021/05/19 02:14:33;;;;;;;2.10;0.90;;;;;;;;;;10510106;28;20336;-69
2021/05/19 02:19:36;;;;;;;2.20;0.87;;;;;;;;;;10514017;28;20666;-69
2021/05/19 02:24:39;;;;;;;1.97;1.00;;;;;;;;;;10522162;28;20613;-70
2021/05/19 02:29:42;;;;;;;2.50;0.90;;;;;;;;;;10521715;28;20241;-70
2021/05/19 02:34:45;;;;;;;1.50;1.00;;;;;;;;;;10521230;28;20199;-70
2021/05/19 02:39:48;;;;;;;3.27;1.10;;;;;;;;;;10529206;28;20208;-70
2021/05/19 02:44:51;;;;;;;2.67;1.17;;;;;;;;;;10515999;28;20295;-71
2021/05/19 02:49:54;;;;;;;1.70;0.97;;;;;;;;;;10518651;28;20265;-70
2021/05/19 02:54:57;;;;;;;1.97;1.07;;;;;;;;;;10518606;28;20195;-70
2021/05/19 03:00:00;;;;;;;4.13;1.30;;;;;;;;;;10517277;28;20269;-69
2021/05/19 03:05:03;;;;;;;2.30;1.10;;;;;;;;;;10531798;28;20196;-70
2021/05/19 03:10:08;;;;;;;3.77;1.13;;;;;;;;;;10527343;28;20345;-70
2021/05/19 03:15:11;;;;;;;2.47;1.13;;;;;;;;;;10525408;28;20640;-70
2021/05/19 03:20:14;;;;;;;2.70;1.20;;;;;;;;;;10539937;28;20219;-70
2021/05/19 03:25:18;;;;;;;3.27;1.20;;;;;;;;;;10534860;28;20191;-70
2021/05/19 03:30:21;;;;;;;2.07;1.10;;;;;;;;;;10532053;28;20203;-68
2021/05/19 03:35:23;;;;;;;3.37;1.40;;;;;;;;;;10524507;28;20192;-69
2021/05/19 03:40:27;;;;;;;3.30;1.17;;;;;;;;;;10526913;28;20273;-71
2021/05/19 03:45:29;;;;;;;2.57;1.40;;;;;;;;;;10533283;28;20203;-69
2021/05/19 03:50:33;;;;;;;3.77;1.30;;;;;;;;;;10526448;28;20238;-69
2021/05/19 03:55:37;;;;;;;3.10;1.50;;;;;;;;;;10540900;28;20554;-70
2021/05/19 04:00:40;;;;;;;4.63;1.80;;;;;;;;;;10539460;28;20251;-70
2021/05/19 04:05:43;;;;;;;3.83;1.60;;;;;;;;;;10541176;28;20195;-71
2021/05/19 04:10:46;;;;;;;5.47;1.93;;;;;;;;;;10538129;28;20273;-71
2021/05/19 04:15:50;;;;;;;4.73;1.90;;;;;;;;;;10530861;28;20195;-70
2021/05/19 04:21:13;;;;;;;4.87;2.03;;;;;;;;;;10533411;28;20227;-68
2021/05/19 04:26:36;;;;;;;4.70;2.40;;;;;;;;;;10542673;28;20196;-71
2021/05/19 04:31:58;;;;;;;4.53;2.43;;;;;;;;;;10518089;28;20329;-70
2021/05/19 04:37:21;;;;;;;6.60;2.90;;;;;;;;;;10524016;28;20214;-69
2021/05/19 04:42:44;;;;;;;6.37;2.63;;;;;;;;;;10518093;28;20576;-69
2021/05/19 04:48:07;;;;;;;5.47;2.70;;;;;;;;;;10524553;28;20192;-70
2021/05/19 04:53:29;;;;;;;5.13;2.40;;;;;;;;;;10521580;28;20273;-69
2021/05/19 04:58:53;;;;;;;4.53;2.30;;;;;;;;;;10530467;28;20579;-69
2021/05/19 05:04:16;;;;;;;5.10;2.20;;;;;;;;;;10527938;28;20235;-71
2021/05/19 05:09:18;;;;;;;5.27;2.50;;;;;;;;;;10522385;28;20199;-71
2021/05/19 05:14:42;;;;;;;6.20;2.33;;;;;;;;;;10521965;28;20297;-71
2021/05/19 05:20:10;;;;;;;6.33;2.53;;;;;;;;;;10516659;28;20219;-71
2021/05/19 05:25:32;;;;;;;5.30;2.70;;;;;;;;;;10532132;28;20324;-69
2021/05/19 05:30:56;;;;;;;4.73;2.07;;;;;;;;;;10516481;28;20213;-70
2021/05/19 05:36:19;;;;;;;3.93;2.30;;;;;;;;;;10523836;28;20205;-71
2021/05/19 05:41:41;;;;;;;5.23;2.10;;;;;;;;;;10522555;28;20220;-70
2021/05/19 05:47:04;;;;;;;5.07;1.90;;;;;;;;;;10523606;28;20219;-70
2021/05/19 05:52:26;;;;;;;5.40;2.23;;;;;;;;;;10523303;28;20713;-71
2021/05/19 05:57:31;;;;;;;4.67;2.10;;;;;;;;;;10518659;28;20717;-70
2021/05/19 06:02:54;;;;;;;6.30;2.23;;;;;;;;;;10515446;28;20314;-70
2021/05/19 06:07:58;;;;;;;5.67;2.40;;;;;;;;;;10513812;28;20254;-69
2021/05/19 06:13:01;;;;;;;5.40;2.50;;;;;;;;;;10516422;28;20232;-70
2021/05/19 06:18:04;;;;;;;6.50;2.60;;;;;;;;;;10523647;28;20235;-70
2021/05/19 06:23:06;;;;;;;5.13;2.47;;;;;;;;;;10525154;28;20702;-69
2021/05/19 06:28:08;;;;;;;7.00;2.80;;;;;;;;;;10518329;28;20195;-68
2021/05/19 06:33:11;;;;;;;5.70;2.67;;;;;;;;;;10523071;28;20215;-70
2021/05/19 06:38:14;;;;;;;6.27;2.63;;;;;;;;;;10516079;28;20206;-69
2021/05/19 06:43:16;;;;;;;5.37;2.70;;;;;;;;;;10512478;28;20543;-69
2021/05/19 06:48:19;;;;;;;5.97;2.93;;;;;;;;;;10517333;28;20183;-70
2021/05/19 06:53:21;;;;;;;5.83;2.80;;;;;;;;;;10512456;28;20326;-69
2021/05/19 06:58:23;;;;;;;5.27;3.03;;;;;;;;;;10527588;28;20359;-70
2021/05/19 07:03:26;;;;;;;5.17;3.07;;;;;;;;;;10519350;28;20683;-71
2021/05/19 07:08:29;;;;;;;6.43;3.23;;;;;;;;;;10515915;28;20567;-72
2021/05/19 07:13:31;;;;;;;6.80;2.97;;;;;;;;;;10522863;28;20694;-71
2021/05/19 07:18:34;;;;;;;7.00;3.33;;;;;;;;;;10525275;28;20578;-70
2021/05/19 07:23:37;;;;;;;5.50;3.00;;;;;;;;;;10521231;28;20219;-70
2021/05/19 07:28:39;;;;;;;7.37;3.57;;;;;;;;;;10514503;28;20199;-69
2021/05/19 07:33:42;;;;;;;7.60;3.50;;;;;;;;;;10521819;28;20308;-70
2021/05/19 07:38:44;;;;;;;5.70;2.97;;;;;;;;;;10508787;28;20303;-70
2021/05/19 07:43:46;;;;;;;6.33;3.53;;;;;;;;;;10514400;28;20211;-70
2021/05/19 07:48:50;;;;;;;6.40;3.33;;;;;;;;;;10497331;28;20406;-70
2021/05/19 07:53:53;;;;;;;7.30;3.60;;;;;;;;;;10510093;28;20950;-70
2021/05/19 07:58:58;;;;;;;6.43;3.50;;;;;;;;;;10509805;28;20341;-70
2021/05/19 08:04:00;;;;;;;6.63;3.73;;;;;;;;;;10521697;28;20281;-70
2021/05/19 08:09:01;;;;;;;7.30;3.70;;;;;;;;;;10516745;28;20206;-70
2021/05/19 08:14:02;;;;;;;6.70;3.67;;;;;;;;;;10520534;28;20261;-71
2021/05/19 08:19:04;;;;;;;7.10;3.40;;;;;;;;;;10525307;28;20227;-70
2021/05/19 08:24:07;;;;;;;6.63;3.60;;;;;;;;;;10521372;28;20208;-69
2021/05/19 08:29:09;;;;;;;5.90;3.47;;;;;;;;;;10521581;28;20564;-70
2021/05/19 08:34:12;;;;;;;4.87;2.80;;;;;;;;;;10530434;28;20230;-70
2021/05/19 08:39:15;;;;;;;6.07;3.47;;;;;;;;;;10540834;28;20215;-70
2021/05/19 08:44:19;;;;;;;7.30;3.97;;;;;;;;;;10524216;28;20567;-70
2021/05/19 08:49:23;;;;;;;6.40;3.67;;;;;;;;;;10515782;28;20184;-69
2021/05/19 08:54:25;;;;;;;6.27;3.70;;;;;;;;;;10517432;28;20631;-71
2021/05/19 08:59:27;;;;;;;6.13;4.30;;;;;;;;;;10525796;28;20703;-71
2021/05/19 09:04:31;;;;;;;8.67;4.90;;;;;;;;;;10521706;28;20220;-71
2021/05/19 09:09:34;;;;;;;7.50;4.93;;;;;;;;;;10519594;28;20210;-68
2021/05/19 09:14:37;;;;;;;6.70;4.37;;;;;;;;;;10527158;28;20212;-70
2021/05/19 09:19:41;;;;;;;7.47;4.37;;;;;;;;;;10526441;28;20208;-70
2021/05/19 09:24:43;;;;;;;6.67;4.13;;;;;;;;;;10513991;28;20195;-69
2021/05/19 09:29:46;;;;;;;7.13;4.50;;;;;;;;;;10524213;28;20257;-70
2021/05/19 09:34:52;;;;;;;7.13;4.40;;;;;;;;;;10527026;28;20229;-69
2021/05/19 09:39:55;;;;;;;6.57;4.60;;;;;;;;;;10517648;28;20257;-69
2021/05/19 09:45:06;;;;;;;6.63;3.92;;;;;;;;;;10514472;28;20189;-68
2021/05/19 09:50:10;;;;;;;6.53;4.35;;;;;;;;;;10515378;28;20203;-69
2021/05/19 09:55:12;;;;;;;6.57;4.30;;;;;;;;;;10524723;28;20187;-69
2021/05/19 10:00:25;;;;;;;6.93;3.88;;;;;;;;;;10524620;28;20219;-70
2021/05/19 10:05:31;;;;;;;8.00;4.37;;;;;;;;;;10508249;28;20321;-71
2021/05/19 10:10:33;;;;;;;7.10;4.00;;;;;;;;;;10527829;28;20221;-71
2021/05/19 10:15:36;;;;;;;7.37;4.60;;;;;;;;;;10523191;28;20207;-71
2021/05/19 10:20:41;;;;;;;7.53;4.40;;;;;;;;;;10521733;28;20216;-72
2021/05/19 10:25:43;;;;;;;6.53;3.90;;;;;;;;;;10524548;28;20196;-70
2021/05/19 10:30:46;;;;;;;6.70;4.13;;;;;;;;;;10517114;28;20211;-71
2021/05/19 10:35:50;;;;;;;6.10;3.27;;;;;;;;;;10523121;28;20199;-71
2021/05/19 10:40:53;;;;;;;6.17;3.37;;;;;;;;;;10523510;28;20648;-70
2021/05/19 10:45:57;;;;;;;9.03;4.40;;;;;;;;;;10520170;28;20196;-70
2021/05/19 10:51:29;;;;;;;6.93;4.03;;;;;;;;;;10517920;28;20243;-71
2021/05/19 11:01:57;;;;;;;8.77;4.23;;;;;;;;;;10516781;28;20684;-70
2021/05/19 11:07:07;;;;;;;7.03;4.00;;;;;;;;;;10518061;28;20290;-67
2021/05/19 11:12:35;;;;;;;7.30;3.30;;;;;;;;;;10522641;28;20300;-70
2021/05/19 11:17:48;;;;;;;5.70;3.13;;;;;;;;;;10517375;28;20321;-66
2021/05/19 11:22:53;;;;;;;7.47;2.93;;;;;;;;;;10521994;28;20211;-68
2021/05/19 11:27:57;;;;;;;5.47;2.80;;;;;;;;;;10525290;28;20188;-68
2021/05/19 11:33:04;;;;;;;5.13;3.00;;;;;;;;;;10515399;28;20438;-69
2021/05/19 11:38:12;;;;;;;6.10;3.77;;;;;;;;;;10534011;28;20196;-68
2021/05/19 11:43:15;;;;;;;6.50;3.93;;;;;;;;;;10527286;28;20242;-71
2021/05/19 11:48:18;;;;;;;5.73;3.77;;;;;;;;;;10521900;28;20986;-68
2021/05/19 11:53:21;;;;;;;6.27;3.27;;;;;;;;;;10524043;28;20399;-69
2021/05/19 11:58:24;;;;;;;6.17;3.20;;;;;;;;;;10515450;28;20277;-70
2021/05/19 12:03:27;;;;;;;9.77;5.50;;;;;;;;;;10536090;28;20234;-70
2021/05/19 12:08:36;;;;;;;6.40;3.93;;;;;;;;;;10528745;28;20192;-70
2021/05/19 12:13:40;;;;;;;6.27;3.80;;;;;;;;;;10523704;28;20288;-66
2021/05/19 12:18:56;;;;;;;7.00;3.90;;;;;;;;;;10535452;28;20212;-70
2021/05/19 12:23:59;;;;;;;7.03;4.17;;;;;;;;;;10526843;28;20215;-69
2021/05/19 12:29:01;;;;;;;5.47;2.93;;;;;;;;;;10524373;28;20536;-69
2021/05/19 12:34:14;;;;;;;7.90;4.70;;;;;;;;;;10524901;28;20207;-70
2021/05/19 12:39:25;;;;;;;6.87;4.30;;;;;;;;;;10517822;28;20603;-69
2021/05/19 12:44:29;;;;;;;8.23;4.47;;;;;;;;;;10523610;28;20293;-68
2021/05/19 12:49:32;;;;;;;9.10;5.23;;;;;;;;;;10516463;28;20694;-69
2021/05/19 12:54:37;;;;;;;8.63;5.23;;;;;;;;;;10515332;28;20379;-67
2021/05/19 13:00:06;;;;;;;7.27;4.43;;;;;;;;;;10526045;28;20591;-68
2021/05/19 13:05:17;;;;;;;10.20;5.10;;;;;;;;;;10474546;28;20200;-69
2021/05/19 13:10:22;;;;;;;10.90;5.97;;;;;;;;;;10519819;28;20224;-69
2021/05/19 13:15:46;;;;;;;8.13;5.80;;;;;;;;;;10525573;28;20202;-69
2021/05/19 13:20:50;;;;;;;9.17;5.03;;;;;;;;;;10526764;28;20314;-68
2021/05/19 13:25:53;;;;;;;5.50;3.00;;;;;;;;;;10530119;28;20195;-70
2021/05/19 13:30:55;;;;;;;3.00;1.70;;;;;;;;;;10522826;28;20740;-69
2021/05/19 13:36:18;;;;;;;4.13;2.17;;;;;;;;;;10523947;28;20260;-70
2021/05/19 13:41:21;;;;;;;2.77;1.80;;;;;;;;;;10528992;28;20225;-70
2021/05/19 13:46:26;;;;;;;4.07;2.37;;;;;;;;;;10528202;28;20274;-68
2021/05/19 13:51:28;;;;;;;4.27;1.93;;;;;;;;;;10526831;28;20208;-69
2021/05/19 13:56:37;;;;;;;2.93;1.73;;;;;;;;;;10523070;28;20227;-68
2021/05/19 14:01:40;;;;;;;2.57;1.50;;;;;;;;;;10520155;28;20687;-67
2021/05/19 14:06:42;;;;;;;1.93;1.50;;;;;;;;;;10520751;28;20191;-70
2021/05/19 14:11:51;;;;;;;3.50;1.90;;;;;;;;;;10505344;28;20754;-67
2021/05/19 14:17:06;;;;;;;3.17;1.80;;;;;;;;;;10519960;28;20187;-69
2021/05/19 14:27:31;;;;;;;2.30;1.60;;;;;;;;;;10518412;28;20211;-69
2021/05/19 14:32:33;;;;;;;2.70;1.70;;;;;;;;;;10508664;28;20210;-70
2021/05/19 14:38:20;;;;;;;2.47;1.57;;;;;;;;;;10523509;28;20210;-70
2021/05/19 14:54:39;;;;;;;4.93;1.93;;;;;;;;;;10520964;28;20268;-69
2021/05/19 14:59:44;;;;;;;3.87;2.03;;;;;;;;;;10518396;28;20271;-69
2021/05/19 15:04:49;;;;;;;2.47;1.80;;;;;;;;;;10516432;28;20214;-68
2021/05/19 15:09:52;;;;;;;4.83;1.70;;;;;;;;;;10508779;28;20295;-69
2021/05/19 15:14:57;;;;;;;1.50;1.10;;;;;;;;;;10523564;28;20295;-69
2021/05/19 15:19:59;;;;;;;2.63;1.30;;;;;;;;;;10525505;28;20231;-69
2021/05/19 15:25:02;;;;;;;3.23;1.30;;;;;;;;;;10526933;28;20622;-69
2021/05/19 15:30:07;;;;;;;1.27;1.07;;;;;;;;;;10517855;28;20220;-69
2021/05/19 15:35:10;;;;;;;3.07;1.30;;;;;;;;;;10520588;28;20725;-69
2021/05/19 15:40:13;;;;;;;5.07;2.90;;;;;;;;;;10518789;28;20306;-70
2021/05/19 15:45:36;;;;;;;2.70;1.23;;;;;;;;;;10521276;28;20212;-67
2021/05/19 15:50:40;;;;;;;1.00;0.90;;;;;;;;;;10517673;28;20226;-69
2021/05/19 15:55:42;;;;;;;1.90;1.00;;;;;;;;;;10525580;28;20223;-70
2021/05/19 16:00:48;;;;;;;1.50;1.10;;;;;;;;;;10525235;28;20223;-70
2021/05/19 16:05:51;;;;;;;2.80;1.40;;;;;;;;;;10540968;28;20264;-69
2021/05/19 16:10:53;;;;;;;2.40;1.20;;;;;;;;;;10512542;28;20231;-69
2021/05/19 16:15:57;;;;;;;2.33;1.10;;;;;;;;;;10525219;28;20210;-68
2021/05/19 16:21:00;;;;;;;3.23;1.80;;;;;;;;;;10532382;28;20269;-69
2021/05/19 16:26:03;;;;;;;4.77;2.00;;;;;;;;;;10524131;28;20674;-71
2021/05/19 16:31:08;;;;;;;12.23;6.53;;;;;;;;;;10530765;28;20291;-69
2021/05/19 16:36:10;;;;;;;4.33;2.33;;;;;;;;;;10523288;28;20198;-69
2021/05/19 16:41:13;;;;;;;4.57;1.63;;;;;;;;;;10525828;28;20239;-70
2021/05/19 16:46:16;;;;;;;6.47;2.67;;;;;;;;;;10532991;28;20196;-69
2021/05/19 16:51:19;;;;;;;3.27;1.13;;;;;;;;;;10536299;28;20621;-69
2021/05/19 16:56:22;;;;;;;3.33;1.50;;;;;;;;;;10529335;28;20879;-70
2021/05/19 17:04:49;;;;;;;5.23;2.20;;;;;;;;;;10515516;28;21025;-69
2021/05/19 17:06:55;;;;;;;5.00;2.50;;;;;;;;;;10514127;28;20264;-69
2021/05/19 17:11:58;;;;;;;3.23;1.83;;;;;;;;;;10511983;28;20232;-70
2021/05/19 17:17:02;;;;;;;1.67;0.90;;;;;;;;;;10523923;28;20727;-70
2021/05/19 17:22:05;;;;;;;2.53;1.13;;;;;;;;;;10532880;28;20215;-70
2021/05/19 17:27:08;;;;;;;2.83;1.30;;;;;;;;;;10518246;28;20200;-70
2021/05/19 17:32:11;;;;;;;4.27;1.80;;;;;;;;;;10537392;28;20590;-69
2021/05/19 17:37:14;;;;;;;4.37;2.10;;;;;;;;;;10513198;28;20284;-70
2021/05/19 17:42:17;;;;;;;2.77;1.57;;;;;;;;;;10522656;28;20215;-70
2021/05/19 17:47:20;;;;;;;3.83;1.67;;;;;;;;;;10531851;27;20209;-69
2021/05/19 17:52:23;;;;;;;3.97;1.90;;;;;;;;;;10523299;28;20215;-70
2021/05/19 17:57:26;;;;;;;4.87;2.00;;;;;;;;;;10530606;28;20237;-69
2021/05/19 18:02:29;;;;;;;2.27;1.10;;;;;;;;;;10526511;28;20307;-69
2021/05/19 18:07:32;;;;;;;3.33;2.00;;;;;;;;;;10527615;28;20589;-70
2021/05/19 18:12:34;;;;;;;4.70;2.30;;;;;;;;;;10506989;28;20234;-68
2021/05/19 18:17:38;;;;;;;1.87;1.00;;;;;;;;;;10522180;28;20274;-69
2021/05/19 18:22:40;;;;;;;2.83;1.43;;;;;;;;;;10519867;28;20223;-69
2021/05/19 18:27:44;;;;;;;3.73;1.70;;;;;;;;;;10527386;28;20221;-69
2021/05/19 18:32:52;;;;;;;2.87;1.70;;;;;;;;;;10525880;28;20628;-69
2021/05/19 18:37:55;;;;;;;5.43;1.80;;;;;;;;;;10524563;28;20188;-70
2021/05/19 18:42:58;;;;;;;2.50;1.50;;;;;;;;;;10518043;28;20219;-70
2021/05/19 18:48:02;;;;;;;3.47;1.57;;;;;;;;;;10526884;28;20661;-69
2021/05/19 18:53:05;;;;;;;2.53;1.50;;;;;;;;;;10522638;28;20560;-69
2021/05/19 18:58:07;;;;;;;2.63;1.27;;;;;;;;;;10524881;28;20234;-71
2021/05/19 19:03:11;;;;;;;3.93;1.30;;;;;;;;;;10524181;28;20221;-71
2021/05/19 19:08:13;;;;;;;1.73;0.80;;;;;;;;;;10522264;28;20558;-70
2021/05/19 19:13:16;;;;;;;1.87;0.73;;;;;;;;;;10523664;28;20756;-70
2021/05/19 19:18:19;;;;;;;2.47;1.30;;;;;;;;;;10524711;28;20192;-70
2021/05/19 19:23:22;;;;;;;1.43;0.80;;;;;;;;;;10523954;28;20250;-71
2021/05/19 19:28:25;;;;;;;2.37;0.97;;;;;;;;;;10526375;28;20241;-71
2021/05/19 19:33:29;;;;;;;2.17;0.50;;;;;;;;;;10513843;28;20683;-71
2021/05/19 19:38:31;;;;;;;2.47;1.27;;;;;;;;;;10524372;28;20702;-70
2021/05/19 19:43:36;;;;;;;1.33;0.70;;;;;;;;;;10523646;28;20223;-72
2021/05/19 19:48:44;;;;;;;1.90;1.00;;;;;;;;;;10523946;28;20666;-70
2021/05/19 19:53:46;;;;;;;2.13;1.00;;;;;;;;;;10533654;28;20200;-70
2021/05/19 19:58:49;;;;;;;2.87;0.90;;;;;;;;;;10523480;28;20214;-69
2021/05/19 20:03:54;;;;;;;2.03;0.90;;;;;;;;;;10521512;28;20293;-70
2021/05/19 20:08:56;;;;;;;2.77;1.30;;;;;;;;;;10530496;28;20192;-69
2021/05/19 20:13:59;;;;;;;2.50;1.03;;;;;;;;;;10524763;28;20600;-70
2021/05/19 20:19:04;;;;;;;1.33;0.73;;;;;;;;;;10527043;28;20195;-69
2021/05/19 20:24:07;;;;;;;1.50;0.70;;;;;;;;;;10527537;28;20250;-71
2021/05/19 20:29:09;;;;;;;2.20;0.77;;;;;;;;;;10531861;28;20601;-70
2021/05/19 20:34:13;;;;;;;1.83;0.93;;;;;;;;;;10510717;28;20211;-70
2021/05/19 20:39:19;;;;;;;1.90;0.73;;;;;;;;;;10526699;28;20662;-70
2021/05/19 20:44:21;;;;;;;2.67;0.50;;;;;;;;;;10526810;28;20226;-71
2021/05/19 20:49:24;;;;;;;1.50;0.73;;;;;;;;;;10513641;28;20204;-69
2021/05/19 20:54:26;;;;;;;1.97;0.90;;;;;;;;;;10501986;28;20208;-69
2021/05/19 20:59:29;;;;;;;1.83;0.90;;;;;;;;;;10503857;28;20537;-70
2021/05/19 21:04:32;;;;;;;1.93;1.00;;;;;;;;;;10511087;28;20317;-68
2021/05/19 21:09:34;;;;;;;1.70;0.90;;;;;;;;;;10510657;28;20211;-69
2021/05/19 21:14:37;;;;;;;2.43;0.90;;;;;;;;;;10529894;28;20208;-70
2021/05/19 21:19:40;;;;;;;2.23;0.90;;;;;;;;;;10529468;28;20219;-70
2021/05/19 21:24:44;;;;;;;3.13;1.10;;;;;;;;;;10525794;28;20624;-70
2021/05/19 21:29:46;;;;;;;1.93;1.00;;;;;;;;;;10528522;28;20312;-71
2021/05/19 21:34:51;;;;;;;1.70;1.00;;;;;;;;;;10527375;28;20250;-71
2021/05/19 21:39:54;;;;;;;2.87;1.20;;;;;;;;;;10526399;28;20210;-71
2021/05/19 21:44:56;;;;;;;2.03;1.17;;;;;;;;;;10528547;28;20192;-70
2021/05/19 21:49:59;;;;;;;2.50;1.07;;;;;;;;;;10525005;28;20261;-70
2021/05/19 21:55:02;;;;;;;2.33;1.07;;;;;;;;;;10527423;28;20233;-71
2021/05/19 22:00:09;;;;;;;2.97;1.20;;;;;;;;;;10523831;28;20621;-70
2021/05/19 22:05:12;;;;;;;2.87;1.20;;;;;;;;;;10525220;28;20632;-70
2021/05/19 22:10:15;;;;;;;1.37;1.03;;;;;;;;;;10526819;28;20246;-70
2021/05/19 22:15:18;;;;;;;1.77;0.87;;;;;;;;;;10523965;28;20207;-70
2021/05/19 22:20:45;;;;;;;1.67;0.90;;;;;;;;;;10529484;28;20243;-72
2021/05/19 22:31:05;;;;;;;1.27;1.00;;;;;;;;;;10520187;28;20221;-71
2021/05/19 22:36:10;;;;;;;3.10;1.23;;;;;;;;;;10538971;28;20207;-70
2021/05/19 22:41:13;;;;;;;2.77;1.20;;;;;;;;;;10529436;28;20663;-70
2021/05/19 22:46:15;;;;;;;3.27;1.10;;;;;;;;;;10524966;28;20198;-71
2021/05/19 22:51:19;;;;;;;2.60;1.20;;;;;;;;;;10519601;28;20230;-71
2021/05/19 22:56:21;;;;;;;2.30;1.17;;;;;;;;;;10520405;28;20288;-70
2021/05/19 23:01:24;;;;;;;2.37;1.10;;;;;;;;;;10525114;28;20302;-71
2021/05/19 23:06:27;;;;;;;2.30;1.10;;;;;;;;;;10518935;28;20196;-71
2021/05/19 23:11:30;;;;;;;1.77;1.17;;;;;;;;;;10518056;28;20225;-70
2021/05/19 23:16:32;;;;;;;1.93;1.00;;;;;;;;;;10517627;28;20245;-70
2021/05/19 23:21:35;;;;;;;3.43;1.10;;;;;;;;;;10530593;28;20224;-70
2021/05/19 23:26:39;;;;;;;1.60;1.10;;;;;;;;;;10513888;28;20215;-70
2021/05/19 23:31:41;;;;;;;2.53;1.13;;;;;;;;;;10523045;28;20204;-70
2021/05/19 23:36:44;;;;;;;2.87;1.10;;;;;;;;;;10531687;28;20218;-70
2021/05/19 23:41:46;;;;;;;2.27;1.10;;;;;;;;;;10525271;28;20208;-70
2021/05/19 23:46:48;;;;;;;1.50;1.00;;;;;;;;;;10534892;28;20187;-71
2021/05/19 23:51:52;;;;;;;2.13;0.90;;;;;;;;;;10532947;28;20269;-70
2021/05/19 23:56:54;;;;;;;2.33;1.13;;;;;;;;;;10534004;28;20200;-71
